Calama, Calama El Loa Airport (SCCF)

NameCalama El Loa Airport
CityCalama
CountryChile
ICAOSCCF
IATACJC
Altitude2299 m
CoordinatesGoogle Map
Live Air TrafficLiveATC.net
METARSCCF 140100Z 27011KT CAVOK 18/M05 Q1026
2019-11-14 01:00:00 Wind: West (270°) 5.66 m/s - Visibility: > 10000 m - Weather: CAVOK - Temperature: 18 °C - Dew point: -5 °C - Humidity: 20.6% - Pressure: 1026 hPa

Sorry, no flights used the airport in this database.